Terminal Aerodrome Forecast
Issued by NWS

Home | Current Version | Previous Version | Text Only | Print | Product List | Glossary Off
Versions: 1 2 3 4 5 6 7 8 9 10 11 12 13 14 15

000
FTUS43 KICT 191738
TAFHUT
TAF
KHUT 191738Z 1918/2018 33020G30KT P6SM VCSH SCT025 OVC035
      TEMPO 1918/1921 BKN025
     FM192300 33012KT P6SM SCT040
     FM200200 31007KT P6SM SKC=

USA.gov is the U.S. government's official web portal to all federal, state and local government web resources and services.